createdAt,value
2022-12-25T00:02:01.850Z,13.70
2022-12-25T00:07:05.383Z,13.00
2022-12-25T00:12:08.899Z,13.30
2022-12-25T00:17:12.441Z,14.60
2022-12-25T00:22:15.960Z,11.80
2022-12-25T00:27:19.409Z,13.00
2022-12-25T00:32:22.996Z,11.90
2022-12-25T00:37:26.534Z,12.20
2022-12-25T00:42:30.089Z,12.50
2022-12-25T00:47:33.594Z,15.20
2022-12-25T00:52:37.130Z,20.40
2022-12-25T00:57:40.593Z,20.20
2022-12-25T01:02:44.212Z,21.50
2022-12-25T01:07:50.613Z,20.90
2022-12-25T01:12:54.162Z,18.50
2022-12-25T01:17:57.674Z,19.50
2022-12-25T01:23:01.263Z,16.10
2022-12-25T01:28:04.820Z,13.80
2022-12-25T01:33:08.294Z,16.00
2022-12-25T01:38:11.803Z,16.00
2022-12-25T01:43:18.649Z,15.40
2022-12-25T01:48:22.402Z,15.60
2022-12-25T01:53:25.878Z,14.60
2022-12-25T01:58:29.420Z,14.50
2022-12-25T02:03:32.985Z,14.30
2022-12-25T02:08:41.517Z,13.40
2022-12-25T02:13:45.125Z,14.30
2022-12-25T02:18:48.696Z,12.90
2022-12-25T02:23:52.241Z,12.20
2022-12-25T02:28:55.729Z,11.20
2022-12-25T02:34:05.351Z,12.20
2022-12-25T02:39:26.470Z,13.50
2022-12-25T02:44:47.905Z,11.40
2022-12-25T02:50:09.334Z,11.60
2022-12-25T02:55:30.853Z,10.90
2022-12-25T03:00:52.371Z,11.40
2022-12-25T03:06:16.009Z,10.90
2022-12-25T03:11:37.717Z,10.50
2022-12-25T03:16:54.009Z,11.30
2022-12-25T03:27:18.812Z,9.30
2022-12-25T03:32:22.326Z,9.70
2022-12-25T03:37:42.885Z,9.90
2022-12-25T03:43:00.253Z,9.50
2022-12-25T03:48:21.418Z,9.40
2022-12-25T03:53:42.871Z,10.00
2022-12-25T03:59:22.911Z,9.10
2022-12-25T04:04:44.964Z,9.30
2022-12-25T04:10:06.528Z,9.20
2022-12-25T04:15:28.070Z,9.50
2022-12-25T04:20:49.316Z,8.60
2022-12-25T04:26:10.774Z,7.80
2022-12-25T04:31:32.248Z,8.30
2022-12-25T04:36:35.825Z,8.00
2022-12-25T04:41:39.305Z,8.00
2022-12-25T04:46:42.981Z,8.90
2022-12-25T04:51:47.759Z,7.90
2022-12-25T04:56:51.255Z,8.50
2022-12-25T05:01:56.079Z,7.90
2022-12-25T05:06:59.786Z,7.50
2022-12-25T05:12:03.365Z,7.60
2022-12-25T05:17:08.031Z,7.50
2022-12-25T05:22:14.638Z,8.50
2022-12-25T05:27:18.261Z,7.50
2022-12-25T05:32:21.738Z,7.20
2022-12-25T05:37:25.303Z,7.00
2022-12-25T05:42:28.844Z,7.90
2022-12-25T05:47:32.396Z,7.50
2022-12-25T05:52:35.955Z,7.30
2022-12-25T05:57:39.483Z,7.50
2022-12-25T06:02:43.128Z,7.10
2022-12-25T06:07:46.940Z,7.40
2022-12-25T06:12:50.494Z,7.00
2022-12-25T06:17:54.012Z,7.30
2022-12-25T06:22:57.543Z,6.30
2022-12-25T06:28:01.164Z,6.80
2022-12-25T06:33:04.717Z,6.90
2022-12-25T06:38:08.232Z,6.50
2022-12-25T06:43:13.107Z,6.30
2022-12-25T06:48:16.630Z,6.00
2022-12-25T06:53:20.293Z,6.50
2022-12-25T06:58:23.833Z,7.20
2022-12-25T07:03:27.406Z,6.90
2022-12-25T07:13:34.713Z,6.90
2022-12-25T07:18:38.228Z,7.20
2022-12-25T07:23:41.740Z,7.40
2022-12-25T07:28:47.091Z,7.50
2022-12-25T07:33:50.636Z,7.00
2022-12-25T07:38:54.290Z,9.90
2022-12-25T07:43:58.163Z,8.10
2022-12-25T07:49:01.636Z,8.60
2022-12-25T07:54:05.191Z,8.30
2022-12-25T07:59:08.697Z,7.70
2022-12-25T08:04:12.379Z,8.60
2022-12-25T08:09:15.883Z,8.30
2022-12-25T08:14:19.377Z,7.90
2022-12-25T08:19:22.911Z,7.30
2022-12-25T08:24:26.425Z,8.50
2022-12-25T08:29:29.977Z,8.20
2022-12-25T08:34:33.461Z,8.10
2022-12-25T08:39:36.941Z,8.00
2022-12-25T08:44:40.421Z,8.00
2022-12-25T08:49:43.898Z,9.60
2022-12-25T08:59:51.565Z,14.30
2022-12-25T09:04:55.131Z,15.20
2022-12-25T09:09:58.616Z,14.50
2022-12-25T09:15:02.128Z,12.80
2022-12-25T09:20:05.817Z,12.70
2022-12-25T09:25:09.339Z,12.60
2022-12-25T09:30:12.966Z,11.60
2022-12-25T09:35:17.610Z,12.40
2022-12-25T09:40:21.128Z,10.70
2022-12-25T09:45:24.756Z,11.60
2022-12-25T09:50:28.267Z,10.60
2022-12-25T09:55:31.794Z,11.00
2022-12-25T10:00:35.301Z,11.60
2022-12-25T10:05:38.768Z,11.20
2022-12-25T10:10:42.315Z,10.40
2022-12-25T10:15:46.222Z,10.70
2022-12-25T10:20:49.848Z,10.10
2022-12-25T10:25:54.430Z,11.00
2022-12-25T10:30:57.958Z,10.00
2022-12-25T10:36:02.607Z,9.60
2022-12-25T10:41:06.340Z,9.90
2022-12-25T10:46:09.898Z,9.40
2022-12-25T10:51:13.554Z,8.80
2022-12-25T10:56:17.097Z,9.60
2022-12-25T11:01:20.806Z,9.20
2022-12-25T11:11:28.595Z,9.10
2022-12-25T11:16:32.170Z,8.50
2022-12-25T11:21:35.854Z,9.10
2022-12-25T11:26:40.459Z,9.00
2022-12-25T11:31:44.002Z,8.70
2022-12-25T11:36:47.510Z,8.20
2022-12-25T11:41:50.997Z,8.60
2022-12-25T11:46:55.155Z,8.50
2022-12-25T11:51:58.874Z,9.10
2022-12-25T11:57:02.397Z,7.80
2022-12-25T12:02:05.943Z,7.90
2022-12-25T12:07:09.573Z,8.30
2022-12-25T12:12:13.154Z,8.10
2022-12-25T12:17:16.760Z,7.60
2022-12-25T12:22:20.254Z,8.60
2022-12-25T12:27:23.761Z,7.90
2022-12-25T12:32:27.274Z,6.80
2022-12-25T12:37:30.925Z,8.20
2022-12-25T12:42:34.403Z,7.70
2022-12-25T12:47:37.939Z,7.50
2022-12-25T12:52:42.722Z,7.30
2022-12-25T12:57:46.622Z,7.60
2022-12-25T13:02:50.260Z,7.70
2022-12-25T13:07:54.294Z,8.00
2022-12-25T13:12:57.775Z,8.00
2022-12-25T13:18:01.303Z,7.50
2022-12-25T13:23:04.802Z,7.90
2022-12-25T13:28:08.331Z,7.60
2022-12-25T13:33:11.871Z,6.90
2022-12-25T13:38:15.427Z,7.60
2022-12-25T13:43:18.953Z,6.90
2022-12-25T13:48:24.131Z,7.90
2022-12-25T13:53:27.656Z,6.80
2022-12-25T13:58:31.297Z,7.80
2022-12-25T14:03:34.954Z,8.20
2022-12-25T14:08:38.618Z,8.50
2022-12-25T14:13:42.124Z,8.60
2022-12-25T14:18:45.641Z,9.40
2022-12-25T14:23:49.188Z,9.70
2022-12-25T14:28:52.703Z,10.40
2022-12-25T14:33:56.275Z,10.20
2022-12-25T14:38:59.795Z,9.10
2022-12-25T14:44:03.336Z,8.90
2022-12-25T14:49:08.905Z,9.40
2022-12-25T14:54:12.437Z,8.90
2022-12-25T14:59:16.317Z,9.20
2022-12-25T15:04:20.596Z,9.00
2022-12-25T15:09:24.185Z,10.30
2022-12-25T15:14:27.670Z,11.90
2022-12-25T15:19:37.025Z,10.40
2022-12-25T15:30:09.304Z,10.40
2022-12-25T15:35:08.731Z,11.70
2022-12-25T15:40:12.335Z,11.00
2022-12-25T15:45:15.899Z,10.70
2022-12-25T15:50:19.818Z,11.40
2022-12-25T15:55:23.379Z,12.50
2022-12-25T16:00:26.915Z,13.80
2022-12-25T16:05:30.758Z,13.30
2022-12-25T16:10:38.723Z,14.10
2022-12-25T16:15:42.822Z,13.30
2022-12-25T16:20:46.728Z,13.90
2022-12-25T16:25:50.219Z,14.70
2022-12-25T16:30:53.823Z,16.00
2022-12-25T16:35:57.311Z,15.40
2022-12-25T16:41:00.891Z,17.40
2022-12-25T16:46:04.534Z,17.90
2022-12-25T16:51:08.178Z,15.10
2022-12-25T16:56:11.787Z,15.30
2022-12-25T17:01:15.307Z,15.50
2022-12-25T17:06:19.853Z,15.60
2022-12-25T17:11:27.156Z,15.50
2022-12-25T17:16:30.776Z,17.20
2022-12-25T17:21:34.895Z,17.50
2022-12-25T17:31:42.083Z,23.60
2022-12-25T17:36:45.775Z,18.20
2022-12-25T17:41:49.325Z,20.00
2022-12-25T17:46:53.026Z,20.40
2022-12-25T17:57:00.292Z,20.70
2022-12-25T18:02:03.977Z,23.90
2022-12-25T18:12:11.232Z,19.30
2022-12-25T18:22:19.198Z,21.30
2022-12-25T18:27:22.777Z,20.40
2022-12-25T18:32:28.161Z,20.30
2022-12-25T18:37:39.445Z,20.90
2022-12-25T18:42:46.487Z,19.80
2022-12-25T18:47:50.012Z,23.60
2022-12-25T18:52:53.474Z,21.80
2022-12-25T18:57:56.967Z,21.40
2022-12-25T19:03:00.898Z,21.30
2022-12-25T19:08:04.800Z,23.40
2022-12-25T19:13:08.392Z,22.80
2022-12-25T19:18:12.344Z,21.90
2022-12-25T19:28:22.356Z,23.30
2022-12-25T19:33:26.421Z,22.10
2022-12-25T19:43:33.764Z,21.10
2022-12-25T19:48:37.364Z,22.20
2022-12-25T19:53:41.153Z,21.40
2022-12-25T19:58:44.952Z,22.40
2022-12-25T20:03:48.460Z,21.50
2022-12-25T20:08:52.374Z,23.90
2022-12-25T20:13:55.972Z,21.10
2022-12-25T20:18:59.523Z,20.90
2022-12-25T20:24:03.052Z,21.00
2022-12-25T20:29:06.618Z,21.10
2022-12-25T20:34:10.611Z,21.40
2022-12-25T20:39:14.235Z,19.80
2022-12-25T20:44:17.942Z,22.50
2022-12-25T20:49:21.476Z,20.80
2022-12-25T20:54:24.990Z,21.20
2022-12-25T20:59:33.513Z,23.40
2022-12-25T21:04:40.675Z,24.00
2022-12-25T21:09:44.175Z,24.80
2022-12-25T21:14:47.634Z,23.80
2022-12-25T21:19:51.238Z,23.60
2022-12-25T21:24:54.809Z,22.70
2022-12-25T21:29:58.967Z,23.40
2022-12-25T21:35:19.197Z,23.20
2022-12-25T21:40:22.711Z,23.70
2022-12-25T21:45:26.223Z,23.80
2022-12-25T21:50:47.491Z,22.80
2022-12-25T21:55:51.014Z,24.40
2022-12-25T22:00:54.688Z,26.20
2022-12-25T22:06:21.122Z,22.80
2022-12-25T22:11:43.064Z,24.60
2022-12-25T22:17:04.435Z,20.40
2022-12-25T22:22:07.912Z,20.60
2022-12-25T22:27:11.435Z,18.60
2022-12-25T22:32:14.929Z,19.70
2022-12-25T22:37:18.426Z,19.00
2022-12-25T22:42:22.334Z,22.50
2022-12-25T22:47:25.877Z,29.20
2022-12-25T22:52:29.413Z,27.60
2022-12-25T22:57:32.936Z,27.80
2022-12-25T23:02:36.680Z,26.50
2022-12-25T23:07:41.709Z,27.90
2022-12-25T23:13:02.753Z,24.80
2022-12-25T23:18:29.306Z,22.70
2022-12-25T23:23:50.452Z,22.50
2022-12-25T23:29:11.897Z,22.80
2022-12-25T23:34:15.464Z,21.60
2022-12-25T23:39:18.927Z,20.60
2022-12-25T23:44:22.410Z,19.90
2022-12-25T23:49:26.200Z,20.90
2022-12-25T23:54:29.736Z,19.30
2022-12-25T23:59:33.257Z,19.40
